Arnett, West Virginia
Current Conditions -  °F | °C
As of 2:51 PM on Saturday 20 Dec 2014 (Local Time) from KBKW Reporting Station
Overcast Overcast  
Wind Chill:   Ceiling: 1000
Heat Index:   Visibility: 10mi
Dew Point: -1°   Wind: 3mph
Humidity: 82%   Direction: 230°SW
Pressure: 30.13"   Gusts: NA
Location:  37.83°N, 81.43°W
Report Text: KBKW 201951Z AUTO 23003KT 10SM BKN010 OVC030 02/M01 A3013 RMK AO2 SLP233 T00221006
Loading
Personal Weather Stations






























Interactive Weather Map New forecast layout! Learn more

10-Day Weather Forecast

Advertisements
Track Severe Weather on mobile